createdAt,value
2022-08-25T07:03:27.184Z,7.78
2022-08-25T07:05:57.434Z,7.78
2022-08-25T07:08:25.541Z,8.27
2022-08-25T07:10:53.480Z,7.47
2022-08-25T07:13:23.408Z,7.93
2022-08-25T07:15:56.018Z,7.45
2022-08-25T07:18:24.776Z,7.20
2022-08-25T07:20:57.075Z,7.35
2022-08-25T07:23:26.733Z,6.95
2022-08-25T07:25:55.331Z,7.35
2022-08-25T07:28:25.282Z,5.70
2022-08-25T07:30:53.702Z,5.65
2022-08-25T07:33:22.069Z,5.20
2022-08-25T07:35:49.959Z,5.30
2022-08-25T07:38:19.813Z,5.00
2022-08-25T07:40:57.078Z,5.97
2022-08-25T07:43:25.390Z,5.22
2022-08-25T07:45:53.658Z,5.60
2022-08-25T07:48:21.783Z,5.18
2022-08-25T07:50:51.343Z,5.30
2022-08-25T07:53:19.234Z,5.80
2022-08-25T07:55:47.460Z,6.87
2022-08-25T07:58:16.317Z,7.32
2022-08-25T08:00:48.776Z,7.55
2022-08-25T08:03:44.581Z,7.55
2022-08-25T08:06:18.241Z,6.82
2022-08-25T08:08:49.887Z,7.70
2022-08-25T08:11:24.194Z,6.07
2022-08-25T08:13:52.913Z,5.45
2022-08-25T08:16:24.527Z,6.30
2022-08-25T08:18:53.339Z,7.78
2022-08-25T08:21:24.551Z,7.60
2022-08-25T08:26:48.125Z,6.87
2022-08-25T08:29:17.075Z,7.32
2022-08-25T08:31:48.785Z,6.75
2022-08-25T08:34:18.728Z,6.72
2022-08-25T08:36:46.647Z,6.93
2022-08-25T08:43:02.914Z,6.95
2022-08-25T08:45:40.567Z,8.38
2022-08-25T08:48:31.972Z,7.87
2022-08-25T08:51:16.818Z,6.97
2022-08-25T08:54:01.543Z,11.52
2022-08-25T08:56:39.222Z,11.15
2022-08-25T08:59:30.548Z,9.60
2022-08-25T09:02:01.379Z,7.35
2022-08-25T09:04:45.870Z,12.55
2022-08-25T09:07:20.702Z,8.60
2022-08-25T09:09:52.208Z,11.82
2022-08-25T09:12:36.298Z,7.87
2022-08-25T09:16:04.108Z,16.48
2022-08-25T09:18:56.289Z,20.20
2022-08-25T09:21:42.574Z,22.02
2022-08-25T09:24:56.205Z,27.87
2022-08-25T09:28:09.200Z,41.42
2022-08-25T09:31:01.637Z,31.95
2022-08-25T09:33:33.521Z,38.05
2022-08-25T09:36:06.396Z,36.78
2022-08-25T09:38:38.394Z,30.85
2022-08-25T09:41:08.351Z,24.48
2022-08-25T09:43:42.170Z,25.55
2022-08-25T09:46:27.029Z,26.98
2022-08-25T09:48:57.688Z,21.17
2022-08-25T09:51:42.374Z,19.73
2022-08-25T09:54:13.754Z,21.55
2022-08-25T09:56:58.321Z,19.15
2022-08-25T09:59:35.901Z,19.37
2022-08-25T10:02:23.967Z,19.10
2022-08-25T10:04:53.224Z,18.73
2022-08-25T10:07:32.570Z,17.83
2022-08-25T10:10:04.395Z,16.73
2022-08-25T10:12:43.130Z,19.70
2022-08-25T10:15:29.784Z,18.92
2022-08-25T10:18:21.422Z,19.33
2022-08-25T10:21:04.825Z,17.83
2022-08-25T10:23:41.435Z,19.40
2022-08-25T10:26:18.400Z,19.02
2022-08-25T10:29:03.390Z,17.42
2022-08-25T10:31:41.356Z,19.85
2022-08-25T10:34:31.567Z,19.20
2022-08-25T10:37:23.898Z,18.37
2022-08-25T10:40:21.952Z,16.85
2022-08-25T10:43:23.751Z,18.17
2022-08-25T10:46:03.187Z,19.10
2022-08-25T10:48:57.619Z,20.08
2022-08-25T10:51:55.704Z,16.08
2022-08-25T10:54:45.545Z,15.82
2022-08-25T10:57:29.563Z,21.83
2022-08-25T11:00:00.685Z,23.52
2022-08-25T11:02:47.521Z,24.52
2022-08-25T11:05:30.815Z,21.87
2022-08-25T11:08:14.762Z,17.65
2022-08-25T11:10:53.371Z,17.65
2022-08-25T11:13:32.499Z,15.15
2022-08-25T11:16:19.623Z,15.73
2022-08-25T11:19:05.636Z,14.50
2022-08-25T11:22:03.431Z,17.23
2022-08-25T11:24:41.915Z,13.90
2022-08-25T11:27:24.493Z,17.10
2022-08-25T11:30:10.092Z,19.75
2022-08-25T11:32:40.716Z,21.12
2022-08-25T11:35:12.635Z,20.00
2022-08-25T11:38:25.663Z,17.60
2022-08-25T11:41:37.103Z,13.60
2022-08-25T11:44:53.031Z,10.15
2022-08-25T11:47:39.803Z,9.80
2022-08-25T11:50:23.933Z,9.05
2022-08-25T11:53:12.528Z,9.77
2022-08-25T11:55:40.792Z,9.15
2022-08-25T11:58:21.256Z,9.35
2022-08-25T12:00:50.769Z,9.32
2022-08-25T12:03:37.232Z,8.75
2022-08-25T12:06:16.160Z,8.35
2022-08-25T12:09:00.618Z,8.68
2022-08-25T12:11:52.293Z,9.68
2022-08-25T12:14:28.267Z,9.50
2022-08-25T12:16:56.665Z,9.18
2022-08-25T12:19:36.974Z,10.15
2022-08-25T12:22:05.944Z,9.63
2022-08-25T12:24:47.629Z,10.82
2022-08-25T12:30:22.340Z,10.25
2022-08-25T12:33:12.123Z,8.77
2022-08-25T12:35:41.965Z,8.90
2022-08-25T12:38:16.080Z,7.87
2022-08-25T12:40:45.325Z,8.43
2022-08-25T12:43:37.475Z,8.50
2022-08-25T12:46:26.006Z,9.18
2022-08-25T12:49:00.661Z,10.35
2022-08-25T12:51:48.453Z,9.07
2022-08-25T12:54:18.934Z,10.40
2022-08-25T12:57:29.664Z,9.30
2022-08-25T12:59:59.832Z,11.20
2022-08-25T13:03:05.511Z,11.45
2022-08-25T13:05:58.776Z,11.23
2022-08-25T13:08:36.884Z,9.75
2022-08-25T13:11:13.522Z,9.60
2022-08-25T13:14:02.272Z,8.98
2022-08-25T13:16:30.947Z,9.23
2022-08-25T13:18:59.815Z,9.40
2022-08-25T13:21:37.113Z,9.60
2022-08-25T13:24:18.181Z,10.23
2022-08-25T13:26:57.443Z,11.48
2022-08-25T13:29:29.717Z,8.02
2022-08-25T13:32:09.265Z,8.95
2022-08-25T13:34:42.520Z,9.95
2022-08-25T13:37:31.199Z,9.55
2022-08-25T13:40:13.161Z,9.00
2022-08-25T13:42:50.870Z,9.63
2022-08-25T13:45:31.876Z,9.15
2022-08-25T13:48:00.021Z,8.13
2022-08-25T13:50:31.471Z,8.63
2022-08-25T13:53:11.660Z,8.60
2022-08-25T13:55:52.061Z,9.43
2022-08-25T13:58:38.709Z,9.40
2022-08-25T14:01:22.655Z,8.68
2022-08-25T14:04:25.953Z,9.75
2022-08-25T14:07:09.604Z,8.75
2022-08-25T14:09:49.817Z,8.70
2022-08-25T14:12:46.758Z,8.23
2022-08-25T14:15:17.811Z,8.07
2022-08-25T14:18:01.070Z,8.35
2022-08-25T14:20:32.095Z,8.05
2022-08-25T14:23:22.469Z,7.67
2022-08-25T14:25:56.832Z,7.70
2022-08-25T14:28:29.451Z,7.95
2022-08-25T14:31:02.644Z,7.43
2022-08-25T14:33:44.136Z,7.80
2022-08-25T14:36:20.964Z,7.43
2022-08-25T14:38:54.729Z,7.50
2022-08-25T14:41:27.808Z,7.45
2022-08-25T14:43:55.737Z,7.60
2022-08-25T14:46:30.921Z,7.53
2022-08-25T14:49:01.613Z,7.65
2022-08-25T14:51:33.230Z,7.28
2022-08-25T14:54:04.759Z,8.15
2022-08-25T14:56:33.786Z,7.60
2022-08-25T14:59:02.887Z,7.87
2022-08-25T15:01:33.351Z,8.30
2022-08-25T15:04:06.563Z,8.23
2022-08-25T15:06:37.723Z,7.82
2022-08-25T15:09:11.616Z,8.20
2022-08-25T15:11:45.712Z,7.68
2022-08-25T15:14:18.641Z,8.27
2022-08-25T15:16:58.063Z,8.20
2022-08-25T15:19:27.646Z,8.15
2022-08-25T15:21:58.040Z,8.18
2022-08-25T15:24:32.946Z,8.15
2022-08-25T15:27:05.979Z,7.70
2022-08-25T15:29:38.604Z,7.55
2022-08-25T15:32:08.702Z,8.90
2022-08-25T15:34:37.051Z,8.40
2022-08-25T15:37:14.716Z,7.95
2022-08-25T15:39:44.785Z,8.15
2022-08-25T15:42:14.250Z,8.00
2022-08-25T15:44:43.171Z,8.57
2022-08-25T15:47:23.307Z,8.18
2022-08-25T15:50:02.897Z,8.05
2022-08-25T15:52:46.151Z,7.90
2022-08-25T15:55:15.306Z,7.68
2022-08-25T15:57:43.891Z,8.55
2022-08-25T16:00:13.710Z,7.47
2022-08-25T16:02:46.235Z,7.85
2022-08-25T16:05:16.236Z,7.95
2022-08-25T16:07:46.266Z,7.28
2022-08-25T16:10:20.945Z,8.30
2022-08-25T16:12:49.936Z,9.10
2022-08-25T16:15:17.934Z,10.43
2022-08-25T16:17:52.243Z,15.50
2022-08-25T16:20:21.174Z,17.92
2022-08-25T16:22:51.328Z,16.80
2022-08-25T16:25:20.400Z,12.73
2022-08-25T16:27:49.681Z,11.50
2022-08-25T16:30:18.044Z,10.75
2022-08-25T16:32:47.192Z,10.35
2022-08-25T16:35:15.487Z,12.18
2022-08-25T16:40:31.737Z,11.63
2022-08-25T16:42:59.645Z,11.35
2022-08-25T16:45:30.491Z,13.50
2022-08-25T16:47:58.914Z,13.67
2022-08-25T16:50:26.919Z,14.00
2022-08-25T16:53:14.947Z,13.65
2022-08-25T16:55:43.561Z,14.80
2022-08-25T16:58:13.360Z,13.05
2022-08-25T17:00:41.829Z,14.68
2022-08-25T17:03:13.421Z,15.50
2022-08-25T17:05:43.237Z,15.43
2022-08-25T17:08:30.535Z,15.25
2022-08-25T17:11:15.146Z,15.15
2022-08-25T17:13:47.256Z,16.25
2022-08-25T17:16:19.849Z,14.45
2022-08-25T17:18:48.799Z,15.13
2022-08-25T17:21:23.808Z,14.87
2022-08-25T17:23:54.782Z,15.55
2022-08-25T17:26:27.974Z,14.93
2022-08-25T17:29:01.269Z,14.57
2022-08-25T17:31:30.715Z,17.30
2022-08-25T17:33:59.727Z,18.33
2022-08-25T17:36:28.279Z,18.33
2022-08-25T17:38:57.049Z,19.48
2022-08-25T17:41:26.306Z,20.62
2022-08-25T17:43:54.195Z,22.08
2022-08-25T17:46:22.189Z,20.67
2022-08-25T17:48:50.904Z,25.95
2022-08-25T17:51:19.479Z,24.60
2022-08-25T17:53:48.617Z,20.50
2022-08-25T17:56:19.440Z,21.25
2022-08-25T17:58:47.987Z,26.02
2022-08-25T18:01:23.012Z,25.02
2022-08-25T18:03:51.791Z,22.62
2022-08-25T18:06:20.893Z,23.80
2022-08-25T18:08:50.276Z,24.50
2022-08-25T18:11:23.951Z,24.67
2022-08-25T18:13:54.020Z,25.20
2022-08-25T18:16:23.708Z,23.87
2022-08-25T18:18:54.121Z,27.17
2022-08-25T18:21:24.912Z,24.12
2022-08-25T18:23:59.169Z,22.27
2022-08-25T18:26:28.128Z,25.02
2022-08-25T18:28:56.223Z,23.60
2022-08-25T18:31:24.252Z,24.02
2022-08-25T18:33:52.592Z,22.95
2022-08-25T18:36:21.256Z,23.20
2022-08-25T18:39:10.776Z,28.05
2022-08-25T18:41:45.049Z,30.60
2022-08-25T18:44:15.638Z,33.70
2022-08-25T18:46:45.261Z,36.40
2022-08-25T18:49:16.039Z,34.17
2022-08-25T18:51:46.208Z,39.15
2022-08-25T18:54:22.816Z,40.65
2022-08-25T18:56:53.990Z,39.80
2022-08-25T18:59:23.572Z,44.42
2022-08-25T19:01:54.336Z,40.72
2022-08-25T19:04:28.509Z,36.85
2022-08-25T19:07:01.145Z,35.70
2022-08-25T19:09:30.674Z,36.10
2022-08-25T19:11:59.337Z,29.87
2022-08-25T19:14:28.005Z,33.10
2022-08-25T19:16:58.279Z,30.65
2022-08-25T19:19:26.415Z,29.37
2022-08-25T19:21:54.983Z,27.40
2022-08-25T19:24:23.045Z,27.55
2022-08-25T19:26:54.791Z,29.30
2022-08-25T19:29:24.338Z,37.33
2022-08-25T19:31:52.554Z,42.83
2022-08-25T19:34:30.335Z,43.13
2022-08-25T19:37:02.077Z,42.65
2022-08-25T19:39:34.347Z,43.75
2022-08-25T19:42:03.237Z,42.08
2022-08-25T19:44:32.268Z,41.92
2022-08-25T19:47:00.795Z,40.83
2022-08-25T19:49:35.013Z,39.05
2022-08-25T19:52:10.395Z,39.90
2022-08-25T19:54:46.024Z,30.15
2022-08-25T19:57:27.836Z,37.00
2022-08-25T20:00:17.154Z,25.42
2022-08-25T20:02:45.802Z,35.65
2022-08-25T20:05:15.550Z,35.80
2022-08-25T20:07:54.178Z,37.50
2022-08-25T20:10:25.042Z,35.42
2022-08-25T20:12:55.199Z,32.88
2022-08-25T20:15:23.606Z,18.98
2022-08-25T20:17:51.641Z,17.55
2022-08-25T20:20:32.588Z,40.47
2022-08-25T20:23:22.815Z,37.45
2022-08-25T20:25:51.119Z,40.88
2022-08-25T20:28:19.293Z,34.83
2022-08-25T20:30:47.254Z,46.50
2022-08-25T20:33:22.819Z,44.58
2022-08-25T20:35:52.936Z,41.88
2022-08-25T20:38:21.701Z,43.30
2022-08-25T20:40:49.607Z,39.92
2022-08-25T20:43:18.205Z,35.15
2022-08-25T20:45:49.816Z,35.33
2022-08-25T20:48:17.907Z,36.10
2022-08-25T20:50:45.778Z,36.35
2022-08-25T20:53:26.278Z,33.72
2022-08-25T20:55:54.233Z,38.35
2022-08-25T20:58:22.094Z,38.42
2022-08-25T21:00:51.959Z,38.30
2022-08-25T21:03:20.669Z,38.60
2022-08-25T21:05:48.558Z,34.50
2022-08-25T21:08:25.718Z,38.97
2022-08-25T21:10:56.359Z,39.53
2022-08-25T21:13:24.358Z,37.55
2022-08-25T21:15:52.617Z,37.78
2022-08-25T21:18:20.375Z,36.35
2022-08-25T21:20:48.628Z,31.10
2022-08-25T21:23:16.942Z,34.90
2022-08-25T21:25:44.900Z,37.55
2022-08-25T21:28:12.865Z,40.35
2022-08-25T21:30:45.625Z,41.65
2022-08-25T21:33:15.742Z,41.83
2022-08-25T21:35:44.260Z,40.55
2022-08-25T21:38:14.783Z,40.75
2022-08-25T21:40:45.020Z,38.83
2022-08-25T21:43:13.468Z,37.40
2022-08-25T21:45:46.595Z,40.17
2022-08-25T21:48:15.585Z,42.10
2022-08-25T21:50:43.482Z,41.67
2022-08-25T21:53:11.987Z,41.35
2022-08-25T21:55:42.095Z,39.35
2022-08-25T21:58:10.180Z,38.72
2022-08-25T22:00:38.283Z,36.53
2022-08-25T22:03:07.718Z,38.88
2022-08-25T22:05:37.523Z,40.12
2022-08-25T22:08:05.852Z,38.88
2022-08-25T22:10:34.024Z,41.25
2022-08-25T22:13:04.261Z,39.17
2022-08-25T22:15:32.230Z,39.90
2022-08-25T22:18:00.761Z,39.63
2022-08-25T22:20:29.000Z,38.25
2022-08-25T22:22:57.005Z,37.45
2022-08-25T22:25:25.395Z,29.02
2022-08-25T22:27:57.032Z,35.72
2022-08-25T22:30:29.399Z,36.45
2022-08-25T22:32:59.077Z,34.57
2022-08-25T22:35:28.604Z,38.55
2022-08-25T22:37:56.442Z,41.33
2022-08-25T22:40:27.660Z,35.92
2022-08-25T22:42:57.404Z,43.30
2022-08-25T22:45:27.287Z,41.45
2022-08-25T22:47:55.717Z,44.25
2022-08-25T22:50:24.522Z,46.28
2022-08-25T22:52:53.562Z,43.87
2022-08-25T22:55:22.038Z,41.53
2022-08-25T22:57:50.498Z,37.47
2022-08-25T23:00:22.761Z,42.58
2022-08-25T23:02:53.593Z,40.53
2022-08-25T23:05:21.711Z,40.47
2022-08-25T23:07:50.871Z,40.78
2022-08-25T23:10:21.068Z,41.65
2022-08-25T23:12:48.910Z,35.50
2022-08-25T23:15:16.723Z,40.65
2022-08-25T23:17:44.963Z,39.75
2022-08-25T23:20:31.267Z,29.23
2022-08-25T23:22:59.507Z,41.03
2022-08-25T23:25:27.554Z,37.92
2022-08-25T23:27:55.384Z,39.83
2022-08-25T23:30:27.269Z,41.20
2022-08-25T23:32:58.257Z,38.33
2022-08-25T23:35:27.049Z,37.58
2022-08-25T23:37:58.132Z,39.67
2022-08-25T23:40:28.045Z,32.00
2022-08-25T23:42:55.865Z,40.08
2022-08-25T23:45:23.767Z,33.20
2022-08-25T23:47:54.048Z,43.10
2022-08-25T23:50:22.491Z,43.63
2022-08-25T23:52:50.325Z,42.88
2022-08-25T23:55:18.632Z,42.92
2022-08-25T23:57:46.744Z,50.40
